KGON 132356Z 01004KT 10SM CLR 23/10 A3004 RMK AO2 SLP172 T02280100 10278 20228 53006

KGON 132256Z 01008KT 10SM SCT080 25/10 A3003 RMK AO2 SLP168 T02500100

KGON 132156Z 35009KT 10SM BKN080 26/09 A3002 RMK AO2 SLP165 T02560094

KGON 132056Z 35006KT 10SM BKN070 27/09 A3002 RMK AO2 SLP165 T02670089 56008

KGON 131956Z 34009KT 10SM BKN070 26/09 A3002 RMK AO2 SLP166 T02610089

KGON 131856Z VRB04KT 10SM BKN070 26/12 A3003 RMK AO2 SLP169 T02610122

KGON 131756Z 33009G17KT 10SM SCT065 27/09 A3004 RMK AO2 SLP173 T02720089 10278 20189 58011

KGON 131656Z 10SM SCT060 27/09 A3006 RMK AO2 SLP178 T02670089